sensor_id;sensor_type;location;lat;lon;timestamp;temperature;humidity
5588;DHT22;2816;49.778;9.986;2023-12-22T00:02:04;4.30;99.90
5588;DHT22;2816;49.778;9.986;2023-12-22T00:04:31;4.20;99.90
5588;DHT22;2816;49.778;9.986;2023-12-22T00:06:59;4.20;99.90
5588;DHT22;2816;49.778;9.986;2023-12-22T00:09:26;4.20;99.90
5588;DHT22;2816;49.778;9.986;2023-12-22T00:11:53;4.10;99.90
5588;DHT22;2816;49.778;9.986;2023-12-22T00:14:20;4.20;99.90
5588;DHT22;2816;49.778;9.986;2023-12-22T00:16:47;4.20;99.90
5588;DHT22;2816;49.778;9.986;2023-12-22T00:19:14;4.10;99.90
5588;DHT22;2816;49.778;9.986;2023-12-22T00:21:41;4.20;99.90
5588;DHT22;2816;49.778;9.986;2023-12-22T00:24:09;4.10;99.90
5588;DHT22;2816;49.778;9.986;2023-12-22T00:26:36;4.10;99.90
5588;DHT22;2816;49.778;9.986;2023-12-22T00:29:02;4.10;99.90
5588;DHT22;2816;49.778;9.986;2023-12-22T00:31:29;4.20;99.90
5588;DHT22;2816;49.778;9.986;2023-12-22T00:33:56;4.10;99.90
5588;DHT22;2816;49.778;9.986;2023-12-22T00:36:23;4.10;99.90
5588;DHT22;2816;49.778;9.986;2023-12-22T00:38:50;4.10;99.90
5588;DHT22;2816;49.778;9.986;2023-12-22T00:41:18;4.10;99.90
5588;DHT22;2816;49.778;9.986;2023-12-22T00:43:45;4.10;99.90
5588;DHT22;2816;49.778;9.986;2023-12-22T00:46:13;4.10;99.90
5588;DHT22;2816;49.778;9.986;2023-12-22T00:48:40;4.20;99.90
5588;DHT22;2816;49.778;9.986;2023-12-22T00:51:06;4.20;99.90
5588;DHT22;2816;49.778;9.986;2023-12-22T00:53:33;4.20;99.90
5588;DHT22;2816;49.778;9.986;2023-12-22T00:56:00;4.20;99.90
5588;DHT22;2816;49.778;9.986;2023-12-22T00:58:29;4.20;99.90
5588;DHT22;2816;49.778;9.986;2023-12-22T01:00:56;4.20;99.90
5588;DHT22;2816;49.778;9.986;2023-12-22T01:03:23;4.20;99.90
5588;DHT22;2816;49.778;9.986;2023-12-22T01:05:50;4.20;99.90
5588;DHT22;2816;49.778;9.986;2023-12-22T01:08:17;4.30;99.90
5588;DHT22;2816;49.778;9.986;2023-12-22T01:10:44;4.30;99.90
5588;DHT22;2816;49.778;9.986;2023-12-22T01:13:11;4.30;99.90
5588;DHT22;2816;49.778;9.986;2023-12-22T01:15:39;4.30;99.90
5588;DHT22;2816;49.778;9.986;2023-12-22T01:18:06;4.40;99.90
5588;DHT22;2816;49.778;9.986;2023-12-22T01:20:32;4.30;99.90
5588;DHT22;2816;49.778;9.986;2023-12-22T01:22:59;4.30;99.90
5588;DHT22;2816;49.778;9.986;2023-12-22T01:25:26;4.40;99.90
5588;DHT22;2816;49.778;9.986;2023-12-22T01:27:53;4.30;99.90
5588;DHT22;2816;49.778;9.986;2023-12-22T01:30:20;4.30;99.90
5588;DHT22;2816;49.778;9.986;2023-12-22T01:32:48;4.40;99.90
5588;DHT22;2816;49.778;9.986;2023-12-22T01:35:15;4.40;99.90
5588;DHT22;2816;49.778;9.986;2023-12-22T01:37:42;4.30;99.90
5588;DHT22;2816;49.778;9.986;2023-12-22T01:40:09;4.30;99.90
5588;DHT22;2816;49.778;9.986;2023-12-22T01:42:36;4.30;99.90
5588;DHT22;2816;49.778;9.986;2023-12-22T01:45:03;4.30;99.90
5588;DHT22;2816;49.778;9.986;2023-12-22T01:47:30;4.30;99.90
5588;DHT22;2816;49.778;9.986;2023-12-22T01:49:58;4.40;99.90
5588;DHT22;2816;49.778;9.986;2023-12-22T01:52:26;4.40;99.90
5588;DHT22;2816;49.778;9.986;2023-12-22T01:54:54;4.30;99.90
5588;DHT22;2816;49.778;9.986;2023-12-22T01:57:21;4.30;99.90
5588;DHT22;2816;49.778;9.986;2023-12-22T01:59:49;4.30;99.90
5588;DHT22;2816;49.778;9.986;2023-12-22T02:02:17;4.40;99.90
5588;DHT22;2816;49.778;9.986;2023-12-22T02:04:44;4.40;99.90
5588;DHT22;2816;49.778;9.986;2023-12-22T02:07:13;4.30;99.90
5588;DHT22;2816;49.778;9.986;2023-12-22T02:09:40;4.40;99.90
5588;DHT22;2816;49.778;9.986;2023-12-22T02:12:07;4.30;99.90
5588;DHT22;2816;49.778;9.986;2023-12-22T02:14:34;4.30;99.90
5588;DHT22;2816;49.778;9.986;2023-12-22T02:17:08;4.20;99.90
5588;DHT22;2816;49.778;9.986;2023-12-22T02:19:41;4.20;99.90
5588;DHT22;2816;49.778;9.986;2023-12-22T02:22:10;4.00;99.90
5588;DHT22;2816;49.778;9.986;2023-12-22T02:24:39;4.00;99.90
5588;DHT22;2816;49.778;9.986;2023-12-22T02:27:13;4.10;99.90
5588;DHT22;2816;49.778;9.986;2023-12-22T02:29:43;4.00;99.90
5588;DHT22;2816;49.778;9.986;2023-12-22T02:32:17;3.90;99.90
5588;DHT22;2816;49.778;9.986;2023-12-22T02:34:50;4.00;99.90
5588;DHT22;2816;49.778;9.986;2023-12-22T02:37:19;4.00;99.90
5588;DHT22;2816;49.778;9.986;2023-12-22T02:39:49;4.00;99.90
5588;DHT22;2816;49.778;9.986;2023-12-22T02:42:16;4.00;99.90
5588;DHT22;2816;49.778;9.986;2023-12-22T02:44:44;3.90;99.90
5588;DHT22;2816;49.778;9.986;2023-12-22T02:47:11;3.80;99.90
5588;DHT22;2816;49.778;9.986;2023-12-22T02:49:37;3.90;99.90
5588;DHT22;2816;49.778;9.986;2023-12-22T02:52:05;3.90;99.90
5588;DHT22;2816;49.778;9.986;2023-12-22T02:54:32;3.90;99.90
5588;DHT22;2816;49.778;9.986;2023-12-22T02:57:00;3.80;99.90
5588;DHT22;2816;49.778;9.986;2023-12-22T02:59:27;3.70;99.90
5588;DHT22;2816;49.778;9.986;2023-12-22T03:01:54;3.70;99.90
5588;DHT22;2816;49.778;9.986;2023-12-22T03:04:21;3.80;99.90
5588;DHT22;2816;49.778;9.986;2023-12-22T03:06:48;3.80;99.90
5588;DHT22;2816;49.778;9.986;2023-12-22T03:09:14;3.80;99.90
5588;DHT22;2816;49.778;9.986;2023-12-22T03:11:41;3.80;99.90
5588;DHT22;2816;49.778;9.986;2023-12-22T03:14:10;3.70;99.90
5588;DHT22;2816;49.778;9.986;2023-12-22T03:16:36;3.70;99.90
5588;DHT22;2816;49.778;9.986;2023-12-22T03:19:03;3.70;99.90
5588;DHT22;2816;49.778;9.986;2023-12-22T03:21:30;3.70;99.90
5588;DHT22;2816;49.778;9.986;2023-12-22T03:23:57;3.70;99.90
5588;DHT22;2816;49.778;9.986;2023-12-22T03:26:26;3.70;99.90
5588;DHT22;2816;49.778;9.986;2023-12-22T03:28:53;3.70;99.90
5588;DHT22;2816;49.778;9.986;2023-12-22T03:31:21;3.70;99.90
5588;DHT22;2816;49.778;9.986;2023-12-22T03:33:48;3.70;99.90
5588;DHT22;2816;49.778;9.986;2023-12-22T03:36:15;3.70;99.90
5588;DHT22;2816;49.778;9.986;2023-12-22T03:38:42;3.70;99.90
5588;DHT22;2816;49.778;9.986;2023-12-22T03:41:09;3.70;99.90
5588;DHT22;2816;49.778;9.986;2023-12-22T03:43:36;3.60;99.90
5588;DHT22;2816;49.778;9.986;2023-12-22T03:46:03;3.60;99.90
5588;DHT22;2816;49.778;9.986;2023-12-22T03:48:31;3.70;99.90
5588;DHT22;2816;49.778;9.986;2023-12-22T03:50:58;3.50;99.90
5588;DHT22;2816;49.778;9.986;2023-12-22T03:53:25;3.50;99.90
5588;DHT22;2816;49.778;9.986;2023-12-22T03:55:52;3.50;99.90
5588;DHT22;2816;49.778;9.986;2023-12-22T03:58:19;3.50;99.90
5588;DHT22;2816;49.778;9.986;2023-12-22T04:00:45;3.50;99.90
5588;DHT22;2816;49.778;9.986;2023-12-22T04:03:12;3.60;99.90
5588;DHT22;2816;49.778;9.986;2023-12-22T04:05:41;3.50;99.90
5588;DHT22;2816;49.778;9.986;2023-12-22T04:08:08;3.60;99.90
5588;DHT22;2816;49.778;9.986;2023-12-22T04:10:34;3.70;99.90
5588;DHT22;2816;49.778;9.986;2023-12-22T04:13:01;3.60;99.90
5588;DHT22;2816;49.778;9.986;2023-12-22T04:15:28;3.60;99.90
5588;DHT22;2816;49.778;9.986;2023-12-22T04:17:55;3.60;99.90
5588;DHT22;2816;49.778;9.986;2023-12-22T04:20:22;3.50;99.90
5588;DHT22;2816;49.778;9.986;2023-12-22T04:22:51;3.60;99.90
5588;DHT22;2816;49.778;9.986;2023-12-22T04:25:17;3.50;99.90
5588;DHT22;2816;49.778;9.986;2023-12-22T04:27:44;3.60;99.90
5588;DHT22;2816;49.778;9.986;2023-12-22T04:30:12;3.60;99.90
5588;DHT22;2816;49.778;9.986;2023-12-22T04:32:38;3.60;99.90
5588;DHT22;2816;49.778;9.986;2023-12-22T04:35:06;3.60;99.90
5588;DHT22;2816;49.778;9.986;2023-12-22T04:37:33;3.60;99.90
5588;DHT22;2816;49.778;9.986;2023-12-22T04:40:01;3.50;99.90
5588;DHT22;2816;49.778;9.986;2023-12-22T04:42:28;3.60;99.90
5588;DHT22;2816;49.778;9.986;2023-12-22T04:44:55;3.60;99.90
5588;DHT22;2816;49.778;9.986;2023-12-22T04:47:22;3.60;99.90
5588;DHT22;2816;49.778;9.986;2023-12-22T04:49:49;3.60;99.90
5588;DHT22;2816;49.778;9.986;2023-12-22T04:52:16;3.60;99.90
5588;DHT22;2816;49.778;9.986;2023-12-22T04:54:43;3.60;99.90
5588;DHT22;2816;49.778;9.986;2023-12-22T04:57:11;3.50;99.90
5588;DHT22;2816;49.778;9.986;2023-12-22T04:59:38;3.50;99.90
5588;DHT22;2816;49.778;9.986;2023-12-22T05:02:04;3.50;99.90
5588;DHT22;2816;49.778;9.986;2023-12-22T05:04:32;3.60;99.90
5588;DHT22;2816;49.778;9.986;2023-12-22T05:06:58;3.60;99.90
5588;DHT22;2816;49.778;9.986;2023-12-22T05:09:26;3.60;99.90
5588;DHT22;2816;49.778;9.986;2023-12-22T05:11:54;3.70;99.90
5588;DHT22;2816;49.778;9.986;2023-12-22T05:14:22;3.70;99.90
5588;DHT22;2816;49.778;9.986;2023-12-22T05:16:49;3.60;99.90
5588;DHT22;2816;49.778;9.986;2023-12-22T05:19:20;3.60;99.90
5588;DHT22;2816;49.778;9.986;2023-12-22T05:21:47;3.70;99.90
5588;DHT22;2816;49.778;9.986;2023-12-22T05:24:15;3.80;99.90
5588;DHT22;2816;49.778;9.986;2023-12-22T05:26:42;3.70;99.90
5588;DHT22;2816;49.778;9.986;2023-12-22T05:29:09;3.80;99.90
5588;DHT22;2816;49.778;9.986;2023-12-22T05:31:39;3.80;99.90
5588;DHT22;2816;49.778;9.986;2023-12-22T05:34:06;3.80;99.90
5588;DHT22;2816;49.778;9.986;2023-12-22T05:36:33;3.80;99.90
5588;DHT22;2816;49.778;9.986;2023-12-22T05:39:00;3.80;99.90
5588;DHT22;2816;49.778;9.986;2023-12-22T05:41:27;3.90;99.90
5588;DHT22;2816;49.778;9.986;2023-12-22T05:43:54;3.80;99.90
5588;DHT22;2816;49.778;9.986;2023-12-22T05:46:21;3.80;99.90
5588;DHT22;2816;49.778;9.986;2023-12-22T05:48:49;3.50;99.90
5588;DHT22;2816;49.778;9.986;2023-12-22T05:51:16;3.60;99.90
5588;DHT22;2816;49.778;9.986;2023-12-22T05:53:43;3.70;99.90
5588;DHT22;2816;49.778;9.986;2023-12-22T05:56:19;3.60;99.90
5588;DHT22;2816;49.778;9.986;2023-12-22T05:58:47;3.60;99.90
5588;DHT22;2816;49.778;9.986;2023-12-22T06:01:15;3.80;99.90
5588;DHT22;2816;49.778;9.986;2023-12-22T06:03:43;3.80;99.90
5588;DHT22;2816;49.778;9.986;2023-12-22T06:06:11;3.90;99.90
5588;DHT22;2816;49.778;9.986;2023-12-22T06:08:38;3.80;99.90
5588;DHT22;2816;49.778;9.986;2023-12-22T06:11:05;3.80;99.90
5588;DHT22;2816;49.778;9.986;2023-12-22T06:13:32;3.70;99.90
5588;DHT22;2816;49.778;9.986;2023-12-22T06:15:59;3.70;99.90
5588;DHT22;2816;49.778;9.986;2023-12-22T06:18:26;3.70;99.90
5588;DHT22;2816;49.778;9.986;2023-12-22T06:20:53;3.90;99.90
5588;DHT22;2816;49.778;9.986;2023-12-22T06:23:21;3.90;99.90
5588;DHT22;2816;49.778;9.986;2023-12-22T06:25:48;3.90;99.90
5588;DHT22;2816;49.778;9.986;2023-12-22T06:28:15;4.00;99.90
5588;DHT22;2816;49.778;9.986;2023-12-22T06:30:43;4.00;99.90
5588;DHT22;2816;49.778;9.986;2023-12-22T06:33:12;4.00;99.90
5588;DHT22;2816;49.778;9.986;2023-12-22T06:35:39;4.10;99.90
5588;DHT22;2816;49.778;9.986;2023-12-22T06:38:07;4.10;99.90
5588;DHT22;2816;49.778;9.986;2023-12-22T06:40:38;4.10;99.90
5588;DHT22;2816;49.778;9.986;2023-12-22T06:43:05;4.10;99.90
5588;DHT22;2816;49.778;9.986;2023-12-22T06:45:31;4.10;99.90
5588;DHT22;2816;49.778;9.986;2023-12-22T06:47:58;4.20;99.90
5588;DHT22;2816;49.778;9.986;2023-12-22T06:50:25;4.20;99.90
5588;DHT22;2816;49.778;9.986;2023-12-22T06:52:52;4.20;99.90
5588;DHT22;2816;49.778;9.986;2023-12-22T06:55:19;4.20;99.90
5588;DHT22;2816;49.778;9.986;2023-12-22T06:57:47;4.20;99.90
5588;DHT22;2816;49.778;9.986;2023-12-22T07:00:15;4.20;99.90
5588;DHT22;2816;49.778;9.986;2023-12-22T07:02:42;4.20;99.90
5588;DHT22;2816;49.778;9.986;2023-12-22T07:05:33;4.20;99.90
5588;DHT22;2816;49.778;9.986;2023-12-22T07:08:03;4.20;99.90
5588;DHT22;2816;49.778;9.986;2023-12-22T07:10:30;4.20;99.90
5588;DHT22;2816;49.778;9.986;2023-12-22T07:12:59;4.20;99.90
5588;DHT22;2816;49.778;9.986;2023-12-22T07:15:26;4.20;99.90
5588;DHT22;2816;49.778;9.986;2023-12-22T07:17:54;4.30;99.90
5588;DHT22;2816;49.778;9.986;2023-12-22T07:20:20;4.30;99.90
5588;DHT22;2816;49.778;9.986;2023-12-22T07:22:47;4.30;99.90
5588;DHT22;2816;49.778;9.986;2023-12-22T07:25:14;4.30;99.90
5588;DHT22;2816;49.778;9.986;2023-12-22T07:27:41;4.30;99.90
5588;DHT22;2816;49.778;9.986;2023-12-22T07:30:10;4.30;99.90
5588;DHT22;2816;49.778;9.986;2023-12-22T07:32:42;4.20;99.90
5588;DHT22;2816;49.778;9.986;2023-12-22T07:35:10;4.20;99.90
5588;DHT22;2816;49.778;9.986;2023-12-22T07:37:37;4.20;99.90
5588;DHT22;2816;49.778;9.986;2023-12-22T07:40:05;4.20;99.90
5588;DHT22;2816;49.778;9.986;2023-12-22T07:42:32;4.20;99.90
5588;DHT22;2816;49.778;9.986;2023-12-22T07:44:59;4.20;99.90
5588;DHT22;2816;49.778;9.986;2023-12-22T07:47:27;4.20;99.90
5588;DHT22;2816;49.778;9.986;2023-12-22T07:49:54;4.30;99.90
5588;DHT22;2816;49.778;9.986;2023-12-22T07:52:21;4.30;99.90
5588;DHT22;2816;49.778;9.986;2023-12-22T07:54:48;4.30;99.90
5588;DHT22;2816;49.778;9.986;2023-12-22T07:57:15;4.30;99.90
5588;DHT22;2816;49.778;9.986;2023-12-22T07:59:42;4.40;99.90
5588;DHT22;2816;49.778;9.986;2023-12-22T08:02:09;4.40;99.90
5588;DHT22;2816;49.778;9.986;2023-12-22T08:04:37;4.40;99.90
5588;DHT22;2816;49.778;9.986;2023-12-22T08:07:06;4.40;99.90
5588;DHT22;2816;49.778;9.986;2023-12-22T08:09:33;4.40;99.90
5588;DHT22;2816;49.778;9.986;2023-12-22T08:12:00;4.50;99.90
5588;DHT22;2816;49.778;9.986;2023-12-22T08:14:27;4.50;99.90
5588;DHT22;2816;49.778;9.986;2023-12-22T08:16:54;4.50;99.90
5588;DHT22;2816;49.778;9.986;2023-12-22T08:19:21;4.70;99.90
5588;DHT22;2816;49.778;9.986;2023-12-22T08:21:49;4.60;99.90
5588;DHT22;2816;49.778;9.986;2023-12-22T08:24:16;4.70;99.90
5588;DHT22;2816;49.778;9.986;2023-12-22T08:26:43;4.60;99.90
5588;DHT22;2816;49.778;9.986;2023-12-22T08:29:10;4.80;99.90
5588;DHT22;2816;49.778;9.986;2023-12-22T08:31:37;4.80;99.90
5588;DHT22;2816;49.778;9.986;2023-12-22T08:34:04;4.80;99.90
5588;DHT22;2816;49.778;9.986;2023-12-22T08:36:32;4.90;99.90
5588;DHT22;2816;49.778;9.986;2023-12-22T08:39:00;4.90;99.90
5588;DHT22;2816;49.778;9.986;2023-12-22T08:41:27;4.90;99.90
5588;DHT22;2816;49.778;9.986;2023-12-22T08:43:54;5.10;99.90
5588;DHT22;2816;49.778;9.986;2023-12-22T08:46:21;5.10;99.90
5588;DHT22;2816;49.778;9.986;2023-12-22T08:48:50;5.10;99.90
5588;DHT22;2816;49.778;9.986;2023-12-22T08:51:17;5.30;99.90
5588;DHT22;2816;49.778;9.986;2023-12-22T08:53:44;5.30;99.90
5588;DHT22;2816;49.778;9.986;2023-12-22T08:56:12;5.40;99.90
5588;DHT22;2816;49.778;9.986;2023-12-22T08:58:40;5.40;99.90
5588;DHT22;2816;49.778;9.986;2023-12-22T09:01:07;5.40;99.90
5588;DHT22;2816;49.778;9.986;2023-12-22T09:03:34;5.30;99.90
5588;DHT22;2816;49.778;9.986;2023-12-22T09:06:09;5.40;99.90
5588;DHT22;2816;49.778;9.986;2023-12-22T09:08:35;5.40;99.90
5588;DHT22;2816;49.778;9.986;2023-12-22T09:11:03;5.40;99.90
5588;DHT22;2816;49.778;9.986;2023-12-22T09:13:31;5.40;99.90
5588;DHT22;2816;49.778;9.986;2023-12-22T09:15:58;5.40;99.90
5588;DHT22;2816;49.778;9.986;2023-12-22T09:18:25;5.40;99.90
5588;DHT22;2816;49.778;9.986;2023-12-22T09:20:52;5.50;99.90
5588;DHT22;2816;49.778;9.986;2023-12-22T09:23:19;5.60;99.90
5588;DHT22;2816;49.778;9.986;2023-12-22T09:25:46;5.50;99.90
5588;DHT22;2816;49.778;9.986;2023-12-22T09:28:13;5.50;99.90
5588;DHT22;2816;49.778;9.986;2023-12-22T09:30:42;5.60;99.90
5588;DHT22;2816;49.778;9.986;2023-12-22T09:33:09;5.60;99.90
5588;DHT22;2816;49.778;9.986;2023-12-22T09:35:36;5.70;99.90
5588;DHT22;2816;49.778;9.986;2023-12-22T09:38:07;5.70;99.90
5588;DHT22;2816;49.778;9.986;2023-12-22T09:40:34;5.60;99.90
5588;DHT22;2816;49.778;9.986;2023-12-22T09:43:02;5.60;99.90
5588;DHT22;2816;49.778;9.986;2023-12-22T09:45:31;5.80;99.90
5588;DHT22;2816;49.778;9.986;2023-12-22T09:48:01;5.70;99.90
5588;DHT22;2816;49.778;9.986;2023-12-22T09:50:29;5.80;99.90
5588;DHT22;2816;49.778;9.986;2023-12-22T09:52:57;5.70;99.90
5588;DHT22;2816;49.778;9.986;2023-12-22T09:55:25;5.80;99.90
5588;DHT22;2816;49.778;9.986;2023-12-22T09:57:52;5.80;99.90
5588;DHT22;2816;49.778;9.986;2023-12-22T10:00:21;5.70;99.90
5588;DHT22;2816;49.778;9.986;2023-12-22T10:02:49;5.80;99.90
5588;DHT22;2816;49.778;9.986;2023-12-22T10:05:17;5.70;99.90
5588;DHT22;2816;49.778;9.986;2023-12-22T10:07:45;5.70;99.90
5588;DHT22;2816;49.778;9.986;2023-12-22T10:10:13;5.60;99.90
5588;DHT22;2816;49.778;9.986;2023-12-22T10:12:41;5.70;99.90
5588;DHT22;2816;49.778;9.986;2023-12-22T10:15:12;5.70;99.90
5588;DHT22;2816;49.778;9.986;2023-12-22T10:17:39;5.70;99.90
5588;DHT22;2816;49.778;9.986;2023-12-22T10:20:08;5.70;99.90
5588;DHT22;2816;49.778;9.986;2023-12-22T10:22:37;5.70;99.90
5588;DHT22;2816;49.778;9.986;2023-12-22T10:25:04;5.70;99.90
5588;DHT22;2816;49.778;9.986;2023-12-22T10:27:32;5.60;99.90
5588;DHT22;2816;49.778;9.986;2023-12-22T10:29:59;5.60;99.90
5588;DHT22;2816;49.778;9.986;2023-12-22T10:32:26;5.60;99.90
5588;DHT22;2816;49.778;9.986;2023-12-22T10:34:54;5.50;99.90
5588;DHT22;2816;49.778;9.986;2023-12-22T10:37:21;5.50;99.90
5588;DHT22;2816;49.778;9.986;2023-12-22T10:39:52;5.50;99.90
5588;DHT22;2816;49.778;9.986;2023-12-22T10:42:19;5.50;99.90
5588;DHT22;2816;49.778;9.986;2023-12-22T10:44:46;5.50;99.90
5588;DHT22;2816;49.778;9.986;2023-12-22T10:47:14;5.50;99.90
5588;DHT22;2816;49.778;9.986;2023-12-22T10:49:41;5.50;99.90
5588;DHT22;2816;49.778;9.986;2023-12-22T10:52:15;5.50;99.90
5588;DHT22;2816;49.778;9.986;2023-12-22T10:54:42;5.50;99.90
5588;DHT22;2816;49.778;9.986;2023-12-22T10:57:11;5.50;99.90
5588;DHT22;2816;49.778;9.986;2023-12-22T10:59:45;5.60;99.90
5588;DHT22;2816;49.778;9.986;2023-12-22T11:02:15;5.60;99.90
5588;DHT22;2816;49.778;9.986;2023-12-22T11:04:50;5.70;99.90
5588;DHT22;2816;49.778;9.986;2023-12-22T11:07:19;5.80;99.90
5588;DHT22;2816;49.778;9.986;2023-12-22T11:09:51;5.80;99.90
5588;DHT22;2816;49.778;9.986;2023-12-22T11:12:21;5.70;99.90
5588;DHT22;2816;49.778;9.986;2023-12-22T11:14:50;5.80;99.90
5588;DHT22;2816;49.778;9.986;2023-12-22T11:17:19;5.90;99.90
5588;DHT22;2816;49.778;9.986;2023-12-22T11:19:49;5.90;99.90
5588;DHT22;2816;49.778;9.986;2023-12-22T11:22:16;6.00;99.90
5588;DHT22;2816;49.778;9.986;2023-12-22T11:24:46;6.10;99.90
5588;DHT22;2816;49.778;9.986;2023-12-22T11:27:17;6.00;99.90
5588;DHT22;2816;49.778;9.986;2023-12-22T11:29:47;6.20;99.90
5588;DHT22;2816;49.778;9.986;2023-12-22T11:32:16;6.20;99.90
5588;DHT22;2816;49.778;9.986;2023-12-22T11:34:43;6.20;99.90
5588;DHT22;2816;49.778;9.986;2023-12-22T11:37:12;6.20;99.90
5588;DHT22;2816;49.778;9.986;2023-12-22T11:39:39;6.30;99.90
5588;DHT22;2816;49.778;9.986;2023-12-22T11:42:08;6.30;99.90
5588;DHT22;2816;49.778;9.986;2023-12-22T11:44:35;6.30;99.90
5588;DHT22;2816;49.778;9.986;2023-12-22T11:47:05;6.20;99.90
5588;DHT22;2816;49.778;9.986;2023-12-22T11:49:32;6.30;99.90
5588;DHT22;2816;49.778;9.986;2023-12-22T11:52:09;6.20;99.90
5588;DHT22;2816;49.778;9.986;2023-12-22T11:54:47;6.30;99.90
5588;DHT22;2816;49.778;9.986;2023-12-22T11:57:34;6.30;99.90
5588;DHT22;2816;49.778;9.986;2023-12-22T12:00:03;6.20;99.90
5588;DHT22;2816;49.778;9.986;2023-12-22T12:02:34;6.20;99.90
5588;DHT22;2816;49.778;9.986;2023-12-22T12:05:03;6.30;99.90
5588;DHT22;2816;49.778;9.986;2023-12-22T12:07:41;6.30;99.90
5588;DHT22;2816;49.778;9.986;2023-12-22T12:10:11;6.30;99.90
5588;DHT22;2816;49.778;9.986;2023-12-22T12:12:38;6.40;99.90
5588;DHT22;2816;49.778;9.986;2023-12-22T12:15:10;6.50;99.90
5588;DHT22;2816;49.778;9.986;2023-12-22T12:17:42;6.50;99.90
5588;DHT22;2816;49.778;9.986;2023-12-22T12:20:10;6.50;99.90
5588;DHT22;2816;49.778;9.986;2023-12-22T12:22:39;6.50;99.90
5588;DHT22;2816;49.778;9.986;2023-12-22T12:25:10;6.60;99.90
5588;DHT22;2816;49.778;9.986;2023-12-22T12:27:38;6.50;99.90
5588;DHT22;2816;49.778;9.986;2023-12-22T12:30:12;6.50;99.90
5588;DHT22;2816;49.778;9.986;2023-12-22T12:32:43;6.50;99.90
5588;DHT22;2816;49.778;9.986;2023-12-22T12:35:11;6.30;99.90
5588;DHT22;2816;49.778;9.986;2023-12-22T12:37:38;6.60;99.90
5588;DHT22;2816;49.778;9.986;2023-12-22T12:40:08;6.70;99.90
5588;DHT22;2816;49.778;9.986;2023-12-22T12:42:36;6.70;99.90
5588;DHT22;2816;49.778;9.986;2023-12-22T12:45:04;6.80;99.90
5588;DHT22;2816;49.778;9.986;2023-12-22T12:47:31;6.80;99.90
5588;DHT22;2816;49.778;9.986;2023-12-22T12:50:00;6.80;99.90
5588;DHT22;2816;49.778;9.986;2023-12-22T12:52:28;6.80;99.90
5588;DHT22;2816;49.778;9.986;2023-12-22T12:54:55;6.80;99.90
5588;DHT22;2816;49.778;9.986;2023-12-22T12:57:24;6.80;99.90
5588;DHT22;2816;49.778;9.986;2023-12-22T12:59:51;6.80;99.90
5588;DHT22;2816;49.778;9.986;2023-12-22T13:02:18;6.80;99.90
5588;DHT22;2816;49.778;9.986;2023-12-22T13:04:46;6.70;99.90
5588;DHT22;2816;49.778;9.986;2023-12-22T13:07:17;6.70;99.90
5588;DHT22;2816;49.778;9.986;2023-12-22T13:09:49;6.70;99.90
5588;DHT22;2816;49.778;9.986;2023-12-22T13:12:16;6.60;99.90
5588;DHT22;2816;49.778;9.986;2023-12-22T13:14:43;6.60;99.90
5588;DHT22;2816;49.778;9.986;2023-12-22T13:17:11;6.70;99.90
5588;DHT22;2816;49.778;9.986;2023-12-22T13:19:38;6.60;99.90
5588;DHT22;2816;49.778;9.986;2023-12-22T13:22:05;6.60;99.90
5588;DHT22;2816;49.778;9.986;2023-12-22T13:24:33;6.60;99.90
5588;DHT22;2816;49.778;9.986;2023-12-22T13:27:02;6.70;99.90
5588;DHT22;2816;49.778;9.986;2023-12-22T13:29:42;6.80;99.90
5588;DHT22;2816;49.778;9.986;2023-12-22T13:32:15;6.60;99.90
5588;DHT22;2816;49.778;9.986;2023-12-22T13:34:47;6.60;99.90
5588;DHT22;2816;49.778;9.986;2023-12-22T13:37:15;6.70;99.90
5588;DHT22;2816;49.778;9.986;2023-12-22T13:39:43;6.60;99.90
5588;DHT22;2816;49.778;9.986;2023-12-22T13:42:14;6.60;99.90
5588;DHT22;2816;49.778;9.986;2023-12-22T13:44:43;6.60;99.90
5588;DHT22;2816;49.778;9.986;2023-12-22T13:47:12;6.60;99.90
5588;DHT22;2816;49.778;9.986;2023-12-22T13:49:39;6.70;99.90
5588;DHT22;2816;49.778;9.986;2023-12-22T13:52:06;6.80;99.90
5588;DHT22;2816;49.778;9.986;2023-12-22T13:54:34;6.90;99.90
5588;DHT22;2816;49.778;9.986;2023-12-22T13:57:02;6.90;99.90
5588;DHT22;2816;49.778;9.986;2023-12-22T13:59:32;6.90;99.90
5588;DHT22;2816;49.778;9.986;2023-12-22T14:01:59;7.00;99.90
5588;DHT22;2816;49.778;9.986;2023-12-22T14:04:27;7.20;99.90
5588;DHT22;2816;49.778;9.986;2023-12-22T14:06:54;7.00;99.90
5588;DHT22;2816;49.778;9.986;2023-12-22T14:09:21;7.10;99.90
5588;DHT22;2816;49.778;9.986;2023-12-22T14:11:50;7.10;99.90
5588;DHT22;2816;49.778;9.986;2023-12-22T14:14:18;7.10;99.90
5588;DHT22;2816;49.778;9.986;2023-12-22T14:16:45;7.00;99.90
5588;DHT22;2816;49.778;9.986;2023-12-22T14:19:12;7.00;99.90
5588;DHT22;2816;49.778;9.986;2023-12-22T14:21:39;7.10;99.90
5588;DHT22;2816;49.778;9.986;2023-12-22T14:24:06;7.10;99.90
5588;DHT22;2816;49.778;9.986;2023-12-22T14:26:52;7.00;99.90
5588;DHT22;2816;49.778;9.986;2023-12-22T14:29:21;7.10;99.90
5588;DHT22;2816;49.778;9.986;2023-12-22T14:31:49;7.10;99.90
5588;DHT22;2816;49.778;9.986;2023-12-22T14:34:16;7.10;99.90
5588;DHT22;2816;49.778;9.986;2023-12-22T14:36:43;6.90;99.90
5588;DHT22;2816;49.778;9.986;2023-12-22T14:39:10;7.10;99.90
5588;DHT22;2816;49.778;9.986;2023-12-22T14:41:39;7.20;99.90
5588;DHT22;2816;49.778;9.986;2023-12-22T14:44:06;7.20;99.90
5588;DHT22;2816;49.778;9.986;2023-12-22T14:46:37;7.10;99.90
5588;DHT22;2816;49.778;9.986;2023-12-22T14:49:04;7.10;99.90
5588;DHT22;2816;49.778;9.986;2023-12-22T14:51:35;7.10;99.90
5588;DHT22;2816;49.778;9.986;2023-12-22T14:54:03;6.90;99.90
5588;DHT22;2816;49.778;9.986;2023-12-22T14:56:29;7.20;99.90
5588;DHT22;2816;49.778;9.986;2023-12-22T14:58:56;7.30;99.90
5588;DHT22;2816;49.778;9.986;2023-12-22T15:01:23;7.30;99.90
5588;DHT22;2816;49.778;9.986;2023-12-22T15:03:51;7.30;99.90
5588;DHT22;2816;49.778;9.986;2023-12-22T15:06:19;7.30;99.90
5588;DHT22;2816;49.778;9.986;2023-12-22T15:08:46;7.20;99.90
5588;DHT22;2816;49.778;9.986;2023-12-22T15:11:13;7.30;99.90
5588;DHT22;2816;49.778;9.986;2023-12-22T15:13:39;7.40;99.90
5588;DHT22;2816;49.778;9.986;2023-12-22T15:16:07;7.30;99.90
5588;DHT22;2816;49.778;9.986;2023-12-22T15:18:34;7.30;99.90
5588;DHT22;2816;49.778;9.986;2023-12-22T15:21:03;7.20;99.90
5588;DHT22;2816;49.778;9.986;2023-12-22T15:23:30;7.30;99.90
5588;DHT22;2816;49.778;9.986;2023-12-22T15:25:56;7.30;99.90
5588;DHT22;2816;49.778;9.986;2023-12-22T15:28:23;7.10;99.90
5588;DHT22;2816;49.778;9.986;2023-12-22T15:30:51;7.30;99.90
5588;DHT22;2816;49.778;9.986;2023-12-22T15:33:18;7.30;99.90
5588;DHT22;2816;49.778;9.986;2023-12-22T15:35:45;7.20;99.90
5588;DHT22;2816;49.778;9.986;2023-12-22T15:38:15;7.30;99.90
5588;DHT22;2816;49.778;9.986;2023-12-22T15:40:42;7.30;99.90
5588;DHT22;2816;49.778;9.986;2023-12-22T15:43:09;7.30;99.90
5588;DHT22;2816;49.778;9.986;2023-12-22T15:45:36;7.20;99.90
5588;DHT22;2816;49.778;9.986;2023-12-22T15:48:03;7.30;99.90
5588;DHT22;2816;49.778;9.986;2023-12-22T15:50:30;7.20;99.90
5588;DHT22;2816;49.778;9.986;2023-12-22T15:52:58;7.20;99.90
5588;DHT22;2816;49.778;9.986;2023-12-22T15:55:26;7.20;99.90
5588;DHT22;2816;49.778;9.986;2023-12-22T15:57:54;7.10;99.90
5588;DHT22;2816;49.778;9.986;2023-12-22T16:00:21;7.10;99.90
5588;DHT22;2816;49.778;9.986;2023-12-22T16:02:51;7.10;99.90
5588;DHT22;2816;49.778;9.986;2023-12-22T16:05:17;7.10;99.90
5588;DHT22;2816;49.778;9.986;2023-12-22T16:07:44;7.20;99.90
5588;DHT22;2816;49.778;9.986;2023-12-22T16:10:11;7.10;99.90
5588;DHT22;2816;49.778;9.986;2023-12-22T16:12:39;7.30;99.90
5588;DHT22;2816;49.778;9.986;2023-12-22T16:15:08;7.20;99.90
5588;DHT22;2816;49.778;9.986;2023-12-22T16:17:35;7.40;99.90
5588;DHT22;2816;49.778;9.986;2023-12-22T16:20:03;7.50;99.90
5588;DHT22;2816;49.778;9.986;2023-12-22T16:22:29;7.60;99.90